createdAt,value
2019-03-13T00:01:42.913Z,7.97
2019-03-13T00:04:12.343Z,13.03
2019-03-13T00:06:41.727Z,5.15
2019-03-13T00:09:12.140Z,9.08
2019-03-13T00:11:41.886Z,4.87
2019-03-13T00:14:11.264Z,10.13
2019-03-13T00:16:40.673Z,5.20
2019-03-13T00:19:10.100Z,10.85
2019-03-13T00:21:39.478Z,11.90
2019-03-13T00:24:08.842Z,7.50
2019-03-13T00:26:38.229Z,9.30
2019-03-13T00:29:07.615Z,7.37
2019-03-13T00:31:36.975Z,8.33
2019-03-13T00:34:06.478Z,10.85
2019-03-13T00:36:35.916Z,8.28
2019-03-13T00:39:06.779Z,11.33
2019-03-13T00:41:36.177Z,9.43
2019-03-13T00:44:05.548Z,8.53
2019-03-13T00:46:34.947Z,10.88
2019-03-13T00:49:04.365Z,6.58
2019-03-13T00:51:36.809Z,17.85
2019-03-13T00:54:04.779Z,8.58
2019-03-13T00:56:34.179Z,12.82
2019-03-13T00:59:03.606Z,10.28
2019-03-13T01:01:51.996Z,17.05
2019-03-13T01:04:25.588Z,4.72
2019-03-13T01:07:01.122Z,6.25
2019-03-13T01:09:30.501Z,8.23
2019-03-13T01:11:59.866Z,5.17
2019-03-13T01:14:29.320Z,6.58
2019-03-13T01:16:58.690Z,3.95
2019-03-13T01:19:28.060Z,5.90
2019-03-13T01:21:57.507Z,6.50
2019-03-13T01:24:26.874Z,4.50
2019-03-13T01:26:56.293Z,7.35
2019-03-13T01:29:25.681Z,5.45
2019-03-13T01:32:17.377Z,3.35
2019-03-13T01:35:11.803Z,6.50
2019-03-13T01:37:41.141Z,2.42
2019-03-13T01:40:11.900Z,6.28
2019-03-13T01:42:41.270Z,7.60
2019-03-13T01:45:11.095Z,2.33
2019-03-13T01:47:40.497Z,2.08
2019-03-13T01:50:10.195Z,5.47
2019-03-13T01:52:39.674Z,2.55
2019-03-13T01:55:09.382Z,2.67
2019-03-13T01:57:38.758Z,4.10
2019-03-13T02:00:09.746Z,5.10
2019-03-13T02:02:39.215Z,3.83
2019-03-13T02:05:08.838Z,4.12
2019-03-13T02:07:38.215Z,3.60
2019-03-13T02:10:08.768Z,4.75
2019-03-13T02:12:38.430Z,2.52
2019-03-13T02:15:08.857Z,4.83
2019-03-13T02:17:38.223Z,3.72
2019-03-13T02:20:08.260Z,2.75
2019-03-13T02:22:37.977Z,3.22
2019-03-13T02:25:07.800Z,1.55
2019-03-13T02:27:37.163Z,4.55
2019-03-13T02:30:07.406Z,2.98
2019-03-13T02:32:36.895Z,2.98
2019-03-13T02:35:06.561Z,8.18
2019-03-13T02:37:35.965Z,3.92
2019-03-13T02:40:06.530Z,1.80
2019-03-13T02:42:35.931Z,1.60
2019-03-13T02:45:05.957Z,3.87
2019-03-13T02:47:35.378Z,6.00
2019-03-13T02:50:05.243Z,4.30
2019-03-13T02:52:34.599Z,1.22
2019-03-13T02:55:04.009Z,1.20
2019-03-13T02:57:33.408Z,3.37
2019-03-13T03:00:02.908Z,8.25
2019-03-13T03:02:36.992Z,2.33
2019-03-13T03:05:06.733Z,1.65
2019-03-13T03:07:36.123Z,1.98
2019-03-13T03:10:05.869Z,1.42
2019-03-13T03:12:35.272Z,2.05
2019-03-13T03:15:13.249Z,3.33
2019-03-13T03:17:42.652Z,8.80
2019-03-13T03:20:14.325Z,11.75
2019-03-13T03:22:43.940Z,6.53
2019-03-13T03:25:13.824Z,10.72
2019-03-13T03:27:43.191Z,8.40
2019-03-13T03:30:15.833Z,7.20
2019-03-13T03:32:45.283Z,13.25
2019-03-13T03:35:14.640Z,7.70
2019-03-13T03:37:44.122Z,7.47
2019-03-13T03:40:14.517Z,10.98
2019-03-13T03:42:44.123Z,18.55
2019-03-13T03:45:13.506Z,19.57
2019-03-13T03:47:42.969Z,9.18
2019-03-13T03:50:12.541Z,3.65
2019-03-13T03:52:42.128Z,7.12
2019-03-13T03:55:11.928Z,6.72
2019-03-13T03:57:41.308Z,13.35
2019-03-13T04:00:10.941Z,13.65
2019-03-13T04:02:40.362Z,7.28
2019-03-13T04:05:10.660Z,7.80
2019-03-13T04:07:40.082Z,11.03
2019-03-13T04:10:09.615Z,6.47
2019-03-13T04:12:39.185Z,9.83
2019-03-13T04:15:08.629Z,8.23
2019-03-13T04:17:37.997Z,4.95
2019-03-13T04:20:07.512Z,8.00
2019-03-13T04:22:36.926Z,9.38
2019-03-13T04:25:32.330Z,8.60
2019-03-13T04:28:01.949Z,9.78
2019-03-13T04:30:31.320Z,8.38
2019-03-13T04:33:00.863Z,6.90
2019-03-13T04:35:30.236Z,10.35
2019-03-13T04:37:59.609Z,6.10
2019-03-13T04:40:29.034Z,7.53
2019-03-13T04:42:58.397Z,5.95
2019-03-13T04:45:27.799Z,9.05
2019-03-13T04:47:57.241Z,6.42
2019-03-13T04:50:26.753Z,10.98
2019-03-13T04:52:56.149Z,10.78
2019-03-13T04:55:25.518Z,6.22
2019-03-13T04:57:54.925Z,10.72
2019-03-13T05:00:24.327Z,11.22
2019-03-13T05:02:53.716Z,9.13
2019-03-13T05:05:55.358Z,13.05
2019-03-13T05:08:45.057Z,8.45
2019-03-13T05:11:07.945Z,7.75
2019-03-13T05:13:37.590Z,10.40
2019-03-13T05:16:06.920Z,15.55
2019-03-13T05:18:36.714Z,8.25
2019-03-13T05:21:06.079Z,8.93
2019-03-13T05:23:35.517Z,11.63
2019-03-13T05:26:04.890Z,10.08
2019-03-13T05:28:34.465Z,10.23
2019-03-13T05:31:03.998Z,9.85
2019-03-13T05:33:33.493Z,17.25
2019-03-13T05:36:02.957Z,13.22
2019-03-13T05:38:32.494Z,12.13
2019-03-13T05:41:07.655Z,15.48
2019-03-13T05:43:37.996Z,12.65
2019-03-13T05:46:08.168Z,14.23
2019-03-13T05:48:37.965Z,14.18
2019-03-13T05:51:07.660Z,18.15
2019-03-13T05:53:38.154Z,17.62
2019-03-13T05:56:08.096Z,14.07
2019-03-13T05:58:37.685Z,14.65
2019-03-13T06:01:07.062Z,10.88
2019-03-13T06:03:36.414Z,12.77
2019-03-13T06:06:05.846Z,12.03
2019-03-13T06:08:35.438Z,12.87
2019-03-13T06:11:05.013Z,11.53
2019-03-13T06:13:36.398Z,18.23
2019-03-13T06:16:05.822Z,12.17
2019-03-13T06:18:35.311Z,10.70
2019-03-13T06:21:04.663Z,13.50
2019-03-13T06:23:34.064Z,22.27
2019-03-13T06:26:03.568Z,15.33
2019-03-13T06:28:32.919Z,13.30
2019-03-13T06:31:02.304Z,11.60
2019-03-13T06:33:31.735Z,10.43
2019-03-13T06:36:01.098Z,12.03
2019-03-13T06:38:30.438Z,16.03
2019-03-13T06:40:59.841Z,18.00
2019-03-13T06:43:29.209Z,14.87
2019-03-13T06:45:58.669Z,14.00
2019-03-13T06:48:28.045Z,12.37
2019-03-13T06:50:57.499Z,13.73
2019-03-13T06:53:26.857Z,9.40
2019-03-13T06:55:56.259Z,9.13
2019-03-13T06:58:34.480Z,9.90
2019-03-13T07:01:21.237Z,8.37
2019-03-13T07:04:09.681Z,9.00
2019-03-13T07:06:56.823Z,12.50
2019-03-13T07:09:48.179Z,6.43
2019-03-13T07:12:35.221Z,15.20
2019-03-13T07:15:13.888Z,13.10
2019-03-13T07:17:59.904Z,14.57
2019-03-13T07:20:44.059Z,10.77
2019-03-13T07:23:24.686Z,12.23
2019-03-13T07:26:19.208Z,11.40
2019-03-13T07:29:13.401Z,8.37
2019-03-13T07:32:04.604Z,9.47
2019-03-13T07:35:10.829Z,10.70
2019-03-13T07:37:59.898Z,14.77
2019-03-13T07:40:47.390Z,13.50
2019-03-13T07:43:25.706Z,11.83
2019-03-13T07:46:11.592Z,12.20
2019-03-13T07:49:02.714Z,12.50
2019-03-13T07:51:38.446Z,14.57
2019-03-13T07:54:23.118Z,13.07
2019-03-13T07:57:15.011Z,14.83
2019-03-13T08:00:15.547Z,16.37
2019-03-13T08:03:02.590Z,13.50
2019-03-13T08:05:50.987Z,12.00
2019-03-13T08:08:36.856Z,14.70
2019-03-13T08:11:21.050Z,11.20
2019-03-13T08:14:09.333Z,13.43
2019-03-13T08:17:00.443Z,9.27
2019-03-13T08:19:51.778Z,11.60
2019-03-13T08:22:36.392Z,11.80
2019-03-13T08:25:30.832Z,9.20
2019-03-13T08:28:19.105Z,8.97
2019-03-13T08:31:13.705Z,13.17
2019-03-13T08:34:12.544Z,13.07
2019-03-13T08:37:15.962Z,13.77
2019-03-13T08:40:10.746Z,17.67
2019-03-13T08:42:53.648Z,19.63
2019-03-13T08:46:00.124Z,14.87
2019-03-13T08:48:43.230Z,16.00
2019-03-13T08:51:49.662Z,14.50
2019-03-13T08:54:28.166Z,13.03
2019-03-13T08:57:14.883Z,12.40
2019-03-13T08:59:51.354Z,12.83
2019-03-13T09:02:39.869Z,9.70
2019-03-13T09:05:43.272Z,11.53
2019-03-13T09:08:52.216Z,16.10
2019-03-13T09:11:34.756Z,11.47
2019-03-13T09:14:21.514Z,11.20
2019-03-13T09:17:13.953Z,18.67
2019-03-13T09:20:11.279Z,16.13
2019-03-13T09:23:02.517Z,18.10
2019-03-13T09:25:46.940Z,21.13
2019-03-13T09:28:35.280Z,17.10
2019-03-13T09:31:25.554Z,16.93
2019-03-13T09:34:19.743Z,23.00
2019-03-13T09:37:08.349Z,17.40
2019-03-13T09:40:00.715Z,12.47
2019-03-13T09:42:52.281Z,13.70
2019-03-13T09:45:40.846Z,8.87
2019-03-13T09:48:33.137Z,14.97
2019-03-13T09:51:24.525Z,13.87
2019-03-13T09:54:21.949Z,11.90
2019-03-13T09:57:10.293Z,15.77
2019-03-13T09:59:47.343Z,13.93
2019-03-13T10:02:25.411Z,9.03
2019-03-13T10:05:12.340Z,8.87
2019-03-13T10:08:03.339Z,7.30
2019-03-13T10:10:57.302Z,8.53
2019-03-13T10:13:43.829Z,8.23
2019-03-13T10:16:30.603Z,8.87
2019-03-13T10:19:19.638Z,7.43
2019-03-13T10:21:59.587Z,7.67
2019-03-13T10:24:57.939Z,6.80
2019-03-13T10:28:04.477Z,10.00
2019-03-13T10:30:55.553Z,11.73
2019-03-13T10:33:47.156Z,6.47
2019-03-13T10:36:53.581Z,6.00
2019-03-13T10:39:33.497Z,6.47
2019-03-13T10:42:20.206Z,8.97
2019-03-13T10:45:07.016Z,5.53
2019-03-13T10:47:58.326Z,4.20
2019-03-13T10:50:43.608Z,6.77
2019-03-13T10:53:35.045Z,2.87
2019-03-13T10:56:22.255Z,3.20
2019-03-13T10:59:01.687Z,7.17
2019-03-13T11:01:40.577Z,6.80
2019-03-13T11:04:15.623Z,5.37
2019-03-13T11:06:55.258Z,5.93
2019-03-13T11:09:48.779Z,6.60
2019-03-13T11:12:24.092Z,5.23
2019-03-13T11:15:15.472Z,5.00
2019-03-13T11:18:09.824Z,3.87
2019-03-13T11:20:56.719Z,4.73
2019-03-13T11:23:47.789Z,3.63
2019-03-13T11:26:39.327Z,5.30
2019-03-13T11:29:27.720Z,5.40
2019-03-13T11:32:20.850Z,5.57
2019-03-13T11:35:13.888Z,3.77
2019-03-13T11:37:54.643Z,8.47
2019-03-13T11:40:40.941Z,5.37
2019-03-13T11:43:26.942Z,4.07
2019-03-13T11:46:33.360Z,5.00
2019-03-13T11:49:20.500Z,2.60
2019-03-13T11:52:07.294Z,5.13
2019-03-13T11:54:54.170Z,5.60
2019-03-13T11:57:32.455Z,5.13
2019-03-13T12:00:10.422Z,6.90
2019-03-13T12:03:00.371Z,4.43
2019-03-13T12:05:48.653Z,4.27
2019-03-13T12:08:45.260Z,5.27
2019-03-13T12:11:33.502Z,9.47
2019-03-13T12:14:22.442Z,7.13
2019-03-13T12:17:11.678Z,5.43
2019-03-13T12:19:56.515Z,4.33
2019-03-13T12:22:35.339Z,4.93
2019-03-13T12:25:22.153Z,3.57
2019-03-13T12:28:10.411Z,4.03
2019-03-13T12:30:54.375Z,5.67
2019-03-13T12:33:45.754Z,3.87
2019-03-13T12:36:34.106Z,3.80
2019-03-13T12:39:11.628Z,7.33
2019-03-13T12:42:06.044Z,4.63
2019-03-13T12:45:00.515Z,6.43
2019-03-13T12:47:55.007Z,5.30
2019-03-13T12:50:34.199Z,4.50
2019-03-13T12:53:20.865Z,5.83
2019-03-13T12:56:14.745Z,4.07
2019-03-13T12:59:01.930Z,4.10
2019-03-13T13:01:50.237Z,6.63
2019-03-13T13:04:32.916Z,4.93
2019-03-13T13:07:21.235Z,10.17
2019-03-13T13:10:04.121Z,9.53
2019-03-13T13:12:52.481Z,9.47
2019-03-13T13:15:37.468Z,6.13
2019-03-13T13:18:23.243Z,7.57
2019-03-13T13:20:52.861Z,7.27
2019-03-13T13:23:22.535Z,8.73
2019-03-13T13:25:51.951Z,5.73
2019-03-13T13:28:21.411Z,6.27
2019-03-13T13:30:50.830Z,8.50
2019-03-13T13:33:20.226Z,4.17
2019-03-13T13:35:49.643Z,6.50
2019-03-13T13:38:19.003Z,4.20
2019-03-13T13:40:48.726Z,6.07
2019-03-13T13:43:18.052Z,6.37
2019-03-13T13:45:50.652Z,5.07
2019-03-13T13:48:20.040Z,8.53
2019-03-13T13:50:49.441Z,5.93
2019-03-13T13:53:18.841Z,6.53
2019-03-13T13:55:48.393Z,4.80
2019-03-13T13:58:17.795Z,6.43
2019-03-13T14:00:47.194Z,9.63
2019-03-13T14:03:16.507Z,7.70
2019-03-13T14:05:45.916Z,5.57
2019-03-13T14:08:15.451Z,9.63
2019-03-13T14:10:45.095Z,5.57
2019-03-13T14:13:14.822Z,6.73
2019-03-13T14:15:44.202Z,5.37
2019-03-13T14:18:13.676Z,8.43
2019-03-13T14:20:43.067Z,8.50
2019-03-13T14:23:12.431Z,4.80
2019-03-13T14:25:41.891Z,14.43
2019-03-13T14:28:11.302Z,5.73
2019-03-13T14:30:40.673Z,5.83
2019-03-13T14:33:10.158Z,3.90
2019-03-13T14:35:39.722Z,8.40
2019-03-13T14:38:09.449Z,6.30
2019-03-13T14:40:39.369Z,7.07
2019-03-13T14:43:08.963Z,9.33
2019-03-13T14:45:38.348Z,3.53
2019-03-13T14:48:07.797Z,6.27
2019-03-13T14:50:37.202Z,4.83
2019-03-13T14:53:07.055Z,6.17
2019-03-13T14:55:36.604Z,5.63
2019-03-13T14:58:06.098Z,5.17
2019-03-13T15:00:35.871Z,8.37
2019-03-13T15:03:05.378Z,11.43
2019-03-13T15:05:34.961Z,8.40
2019-03-13T15:08:04.351Z,4.90
2019-03-13T15:10:33.869Z,7.70
2019-03-13T15:13:03.314Z,6.10
2019-03-13T15:15:32.636Z,5.20
2019-03-13T15:18:01.999Z,5.33
2019-03-13T15:20:31.608Z,13.17
2019-03-13T15:23:01.062Z,6.83
2019-03-13T15:25:30.482Z,4.73
2019-03-13T15:28:00.062Z,6.63
2019-03-13T15:30:29.469Z,5.00
2019-03-13T15:32:58.832Z,6.20
2019-03-13T15:35:28.277Z,8.83
2019-03-13T15:37:57.892Z,8.17
2019-03-13T15:40:27.372Z,7.27
2019-03-13T15:42:56.924Z,8.27
2019-03-13T15:45:26.318Z,5.03
2019-03-13T15:47:55.796Z,10.63
2019-03-13T15:50:25.158Z,7.37
2019-03-13T15:52:54.665Z,11.77
2019-03-13T15:55:24.110Z,8.17
2019-03-13T15:57:53.492Z,7.57
2019-03-13T16:00:23.724Z,5.50
2019-03-13T16:02:55.643Z,6.80
2019-03-13T16:05:24.432Z,7.03
2019-03-13T16:07:53.883Z,6.13
2019-03-13T16:10:23.505Z,4.63
2019-03-13T16:12:54.738Z,12.43
2019-03-13T16:15:25.446Z,10.27
2019-03-13T16:17:54.983Z,10.77
2019-03-13T16:20:24.411Z,8.70
2019-03-13T16:22:56.658Z,5.33
2019-03-13T16:25:26.054Z,7.53
2019-03-13T16:27:55.540Z,4.67
2019-03-13T16:30:25.625Z,6.97
2019-03-13T16:32:55.059Z,6.83
2019-03-13T16:35:26.509Z,5.20
2019-03-13T16:37:55.849Z,5.67
2019-03-13T16:40:25.616Z,6.00
2019-03-13T16:42:58.745Z,4.83
2019-03-13T16:45:28.280Z,5.57
2019-03-13T16:47:57.644Z,5.33
2019-03-13T16:50:27.090Z,4.20
2019-03-13T16:52:56.574Z,5.20
2019-03-13T16:55:25.944Z,6.50
2019-03-13T16:57:55.780Z,4.40
2019-03-13T17:00:25.632Z,8.60
2019-03-13T17:02:55.403Z,4.97
2019-03-13T17:05:24.886Z,4.07
2019-03-13T17:07:54.354Z,6.23
2019-03-13T17:10:24.142Z,4.43
2019-03-13T17:12:54.066Z,4.07
2019-03-13T17:15:24.233Z,10.07
2019-03-13T17:17:53.913Z,6.10
2019-03-13T17:20:26.410Z,9.50
2019-03-13T17:22:56.351Z,9.83
2019-03-13T17:25:25.718Z,6.30
2019-03-13T17:27:55.805Z,8.63
2019-03-13T17:30:25.984Z,14.60
2019-03-13T17:32:55.939Z,8.63
2019-03-13T17:35:25.674Z,10.77
2019-03-13T17:37:55.089Z,8.13
2019-03-13T17:40:24.891Z,7.13
2019-03-13T17:42:56.062Z,10.30
2019-03-13T17:45:26.457Z,13.33
2019-03-13T17:47:56.103Z,10.30
2019-03-13T17:50:26.126Z,9.17
2019-03-13T17:52:56.079Z,6.00
2019-03-13T17:55:25.567Z,9.40
2019-03-13T17:57:55.881Z,7.53
2019-03-13T18:00:29.851Z,5.93
2019-03-13T18:03:02.795Z,8.23
2019-03-13T18:05:32.192Z,4.33
2019-03-13T18:08:01.602Z,4.60
2019-03-13T18:10:31.107Z,4.87
2019-03-13T18:13:00.761Z,6.10
2019-03-13T18:15:30.512Z,4.83
2019-03-13T18:18:00.372Z,3.87
2019-03-13T18:20:29.899Z,4.43
2019-03-13T18:22:59.329Z,7.80
2019-03-13T18:25:28.903Z,7.90
2019-03-13T18:27:58.431Z,5.07
2019-03-13T18:30:28.169Z,7.13
2019-03-13T18:32:57.766Z,3.00
2019-03-13T18:35:27.151Z,3.63
2019-03-13T18:37:56.543Z,4.47
2019-03-13T18:40:25.986Z,9.17
2019-03-13T18:42:55.613Z,7.97
2019-03-13T18:45:25.749Z,3.87
2019-03-13T18:47:55.270Z,5.60
2019-03-13T18:50:24.717Z,5.27
2019-03-13T18:52:55.049Z,4.87
2019-03-13T18:55:24.581Z,6.17
2019-03-13T18:57:54.075Z,3.70
2019-03-13T19:00:27.944Z,6.77
2019-03-13T19:02:57.334Z,7.20
2019-03-13T19:05:26.879Z,7.07
2019-03-13T19:07:56.426Z,6.00
2019-03-13T19:10:26.286Z,5.80
2019-03-13T19:12:55.909Z,3.53
2019-03-13T19:15:25.430Z,4.77
2019-03-13T19:17:54.893Z,4.87
2019-03-13T19:20:24.290Z,6.50
2019-03-13T19:22:54.150Z,7.10
2019-03-13T19:25:23.600Z,6.50
2019-03-13T19:27:53.064Z,6.50
2019-03-13T19:30:24.281Z,5.17
2019-03-13T19:32:53.765Z,7.27
2019-03-13T19:35:23.244Z,5.77
2019-03-13T19:37:52.710Z,5.47
2019-03-13T19:40:22.209Z,6.03
2019-03-13T19:42:51.808Z,6.60
2019-03-13T19:45:26.785Z,6.70
2019-03-13T19:47:56.169Z,4.33
2019-03-13T19:50:28.043Z,5.77
2019-03-13T19:52:56.635Z,5.70
2019-03-13T19:55:25.992Z,6.40
2019-03-13T19:57:55.411Z,4.23
2019-03-13T20:00:25.672Z,5.50
2019-03-13T20:03:00.422Z,3.93
2019-03-13T20:05:29.128Z,6.30
2019-03-13T20:07:58.514Z,6.70
2019-03-13T20:10:27.904Z,9.10
2019-03-13T20:12:57.438Z,10.83
2019-03-13T20:15:26.826Z,9.00
2019-03-13T20:17:56.309Z,16.37
2019-03-13T20:20:25.893Z,11.43
2019-03-13T20:22:57.358Z,9.47
2019-03-13T20:25:26.971Z,8.77
2019-03-13T20:27:56.534Z,7.83
2019-03-13T20:30:26.100Z,8.47
2019-03-13T20:32:55.491Z,6.83
2019-03-13T20:35:24.917Z,6.37
2019-03-13T20:37:54.383Z,4.33
2019-03-13T20:40:23.874Z,7.10
2019-03-13T20:42:53.491Z,4.80
2019-03-13T20:45:23.713Z,3.93
2019-03-13T20:47:53.089Z,4.77
2019-03-13T20:50:35.709Z,7.90
2019-03-13T20:52:54.254Z,5.23
2019-03-13T20:55:23.731Z,3.27
2019-03-13T20:57:53.106Z,7.60
2019-03-13T21:00:23.462Z,3.83
2019-03-13T21:02:53.064Z,5.53
2019-03-13T21:05:22.660Z,4.50
2019-03-13T21:07:52.205Z,5.90
2019-03-13T21:10:21.677Z,7.13
2019-03-13T21:12:51.116Z,3.47
2019-03-13T21:15:20.607Z,4.10
2019-03-13T21:17:50.219Z,7.67
2019-03-13T21:20:19.750Z,3.10
2019-03-13T21:22:49.283Z,6.23
2019-03-13T21:25:18.652Z,5.33
2019-03-13T21:27:48.376Z,9.03
2019-03-13T21:30:22.589Z,3.80
2019-03-13T21:32:51.959Z,6.40
2019-03-13T21:35:21.538Z,3.97
2019-03-13T21:37:50.897Z,5.03
2019-03-13T21:40:20.411Z,7.50
2019-03-13T21:42:49.884Z,4.47
2019-03-13T21:45:22.654Z,6.03
2019-03-13T21:47:50.328Z,6.53
2019-03-13T21:50:19.888Z,5.40
2019-03-13T21:52:49.354Z,5.53
2019-03-13T21:55:18.832Z,6.87
2019-03-13T21:57:51.592Z,4.47
2019-03-13T22:00:21.471Z,3.43
2019-03-13T22:02:51.084Z,4.00
2019-03-13T22:05:26.109Z,7.97
2019-03-13T22:07:52.081Z,4.90
2019-03-13T22:10:21.750Z,8.90
2019-03-13T22:12:51.100Z,4.87
2019-03-13T22:15:20.559Z,6.53
2019-03-13T22:17:49.965Z,4.27
2019-03-13T22:20:19.568Z,4.73
2019-03-13T22:22:49.419Z,6.17
2019-03-13T22:25:18.777Z,4.87
2019-03-13T22:27:48.135Z,6.77
2019-03-13T22:30:19.379Z,4.77
2019-03-13T22:32:48.859Z,4.50
2019-03-13T22:35:18.318Z,4.30
2019-03-13T22:37:47.735Z,6.50
2019-03-13T22:40:17.322Z,5.10
2019-03-13T22:42:46.943Z,6.43
2019-03-13T22:45:16.709Z,6.00
2019-03-13T22:47:46.100Z,8.03
2019-03-13T22:50:16.754Z,6.30
2019-03-13T22:52:46.153Z,6.57
2019-03-13T22:55:15.741Z,10.27
2019-03-13T22:57:45.192Z,7.03
2019-03-13T23:00:48.194Z,4.57
2019-03-13T23:03:18.027Z,8.97
2019-03-13T23:05:47.478Z,7.70
2019-03-13T23:08:17.164Z,7.67
2019-03-13T23:10:46.604Z,8.03
2019-03-13T23:13:17.431Z,8.00
2019-03-13T23:15:47.011Z,5.53
2019-03-13T23:18:18.293Z,5.50
2019-03-13T23:20:47.766Z,8.50
2019-03-13T23:23:17.114Z,5.60
2019-03-13T23:25:46.530Z,7.40
2019-03-13T23:28:15.937Z,5.53
2019-03-13T23:30:45.311Z,5.40
2019-03-13T23:33:14.691Z,7.43
2019-03-13T23:35:44.027Z,5.30
2019-03-13T23:38:13.433Z,8.70
2019-03-13T23:40:42.906Z,5.67
2019-03-13T23:43:12.298Z,5.50
2019-03-13T23:45:41.647Z,6.13
2019-03-13T23:48:11.045Z,5.57
2019-03-13T23:50:40.407Z,5.80
2019-03-13T23:53:09.811Z,7.13
2019-03-13T23:55:39.224Z,5.67
2019-03-13T23:58:11.360Z,7.13
